createdAt,value
2022-09-18T00:01:15.915Z,8.20
2022-09-18T00:03:43.234Z,8.20
2022-09-18T00:06:12.916Z,8.20
2022-09-18T00:08:40.343Z,8.10
2022-09-18T00:11:09.310Z,8.10
2022-09-18T00:13:38.314Z,8.00
2022-09-18T00:16:07.158Z,8.00
2022-09-18T00:18:34.468Z,7.90
2022-09-18T00:21:12.663Z,7.80
2022-09-18T00:23:40.465Z,7.70
2022-09-18T00:26:08.668Z,7.70
2022-09-18T00:28:36.052Z,7.60
2022-09-18T00:31:09.995Z,7.60
2022-09-18T00:33:37.649Z,7.50
2022-09-18T00:36:05.912Z,7.60
2022-09-18T00:38:33.184Z,7.60
2022-09-18T00:41:02.136Z,7.60
2022-09-18T00:43:31.444Z,7.60
2022-09-18T00:46:06.268Z,7.60
2022-09-18T00:48:48.879Z,7.70
2022-09-18T00:51:18.001Z,7.60
2022-09-18T00:53:52.447Z,7.70
2022-09-18T00:56:20.054Z,7.80
2022-09-18T00:58:47.186Z,7.90
2022-09-18T01:01:14.142Z,8.00
2022-09-18T01:03:40.955Z,8.10
2022-09-18T01:06:50.597Z,8.30
2022-09-18T01:09:42.630Z,8.40
2022-09-18T01:12:10.228Z,8.50
2022-09-18T01:14:57.392Z,8.70
2022-09-18T01:17:41.803Z,8.70
2022-09-18T01:20:20.718Z,8.90
2022-09-18T01:22:59.448Z,9.00
2022-09-18T01:26:04.827Z,9.00
2022-09-18T01:29:00.530Z,9.10
2022-09-18T01:31:34.994Z,9.10
2022-09-18T01:34:13.987Z,9.20
2022-09-18T01:36:44.748Z,9.30
2022-09-18T01:39:26.122Z,9.30
2022-09-18T01:41:53.796Z,9.30
2022-09-18T01:44:25.307Z,9.30
2022-09-18T01:46:58.053Z,9.30
2022-09-18T01:49:29.575Z,9.40
2022-09-18T01:52:03.425Z,9.30
2022-09-18T01:54:35.546Z,9.30
2022-09-18T01:57:15.774Z,9.20
2022-09-18T01:59:56.045Z,9.20
2022-09-18T02:02:38.009Z,9.30
2022-09-18T02:05:09.570Z,9.20
2022-09-18T02:08:01.073Z,9.30
2022-09-18T02:10:31.421Z,9.30
2022-09-18T02:13:00.982Z,9.30
2022-09-18T02:15:36.022Z,9.30
2022-09-18T02:18:08.450Z,9.20
2022-09-18T02:20:36.934Z,9.30
2022-09-18T02:23:07.130Z,9.30
2022-09-18T02:25:48.385Z,9.30
2022-09-18T02:28:17.316Z,9.30
2022-09-18T02:30:44.661Z,9.40
2022-09-18T02:33:23.773Z,9.40
2022-09-18T02:36:01.189Z,9.30
2022-09-18T02:39:16.311Z,9.30
2022-09-18T02:41:56.676Z,9.30
2022-09-18T02:44:43.539Z,9.30
2022-09-18T02:47:36.464Z,9.30
2022-09-18T02:50:15.740Z,9.30
2022-09-18T02:53:04.453Z,9.30
2022-09-18T02:55:42.830Z,9.40
2022-09-18T02:58:29.186Z,9.40
2022-09-18T03:01:00.787Z,9.40
2022-09-18T03:03:30.620Z,9.50
2022-09-18T03:05:57.786Z,9.50
2022-09-18T03:08:25.120Z,9.50
2022-09-18T03:10:51.949Z,9.40
2022-09-18T03:13:18.882Z,9.40
2022-09-18T03:15:45.909Z,9.50
2022-09-18T03:18:12.708Z,9.50
2022-09-18T03:20:41.760Z,9.50
2022-09-18T03:23:09.881Z,9.50
2022-09-18T03:25:36.940Z,9.50
2022-09-18T03:31:01.512Z,9.50
2022-09-18T03:33:28.325Z,9.50
2022-09-18T03:35:55.190Z,9.60
2022-09-18T03:38:21.977Z,9.60
2022-09-18T03:40:48.887Z,9.60
2022-09-18T03:43:15.673Z,9.60
2022-09-18T03:45:43.317Z,9.70
2022-09-18T03:48:10.136Z,9.60
2022-09-18T03:50:36.922Z,9.70
2022-09-18T03:53:03.909Z,9.70
2022-09-18T03:55:31.124Z,9.70
2022-09-18T03:57:57.901Z,9.70
2022-09-18T04:00:25.615Z,9.70
2022-09-18T04:02:52.486Z,9.80
2022-09-18T04:05:19.292Z,9.80
2022-09-18T04:07:46.131Z,9.80
2022-09-18T04:10:13.493Z,9.80
2022-09-18T04:12:40.550Z,9.80
2022-09-18T04:15:07.993Z,9.80
2022-09-18T04:17:34.855Z,9.80
2022-09-18T04:20:02.348Z,9.70
2022-09-18T04:22:29.224Z,9.70
2022-09-18T04:24:56.012Z,9.70
2022-09-18T04:27:22.781Z,9.60
2022-09-18T04:29:49.543Z,9.70
2022-09-18T04:32:16.420Z,9.60
2022-09-18T04:34:43.526Z,9.70
2022-09-18T04:37:10.714Z,9.70
2022-09-18T04:39:37.681Z,9.60
2022-09-18T04:42:04.993Z,9.60
2022-09-18T04:44:34.924Z,9.70
2022-09-18T04:47:01.760Z,9.70
2022-09-18T04:49:28.550Z,9.60
2022-09-18T04:51:55.346Z,9.70
2022-09-18T04:54:22.114Z,9.60
2022-09-18T04:56:48.886Z,9.60
2022-09-18T04:59:15.756Z,9.70
2022-09-18T05:01:42.602Z,9.70
2022-09-18T05:04:09.460Z,9.70
2022-09-18T05:06:36.246Z,9.70
2022-09-18T05:09:03.498Z,9.70
2022-09-18T05:11:30.369Z,9.70
2022-09-18T05:13:58.158Z,9.70
2022-09-18T05:16:25.794Z,9.70
2022-09-18T05:18:53.216Z,9.70
2022-09-18T05:21:20.085Z,9.80
2022-09-18T05:23:47.978Z,9.80
2022-09-18T05:26:14.765Z,9.90
2022-09-18T05:28:41.641Z,9.90
2022-09-18T05:31:08.978Z,9.90
2022-09-18T05:33:36.716Z,9.90
2022-09-18T05:36:05.578Z,9.90
2022-09-18T05:38:32.688Z,9.90
2022-09-18T05:41:01.907Z,9.80
2022-09-18T05:43:29.277Z,9.80
2022-09-18T05:45:56.865Z,9.80
2022-09-18T05:48:24.051Z,9.70
2022-09-18T05:50:52.104Z,9.80
2022-09-18T05:53:21.421Z,9.80
2022-09-18T05:55:48.687Z,9.70
2022-09-18T05:58:18.144Z,9.70
2022-09-18T06:00:46.182Z,9.80
2022-09-18T06:03:15.403Z,9.80
2022-09-18T06:05:43.057Z,9.80
2022-09-18T06:08:11.930Z,9.80
2022-09-18T06:10:40.527Z,9.80
2022-09-18T06:13:16.031Z,9.80
2022-09-18T06:15:48.244Z,9.70
2022-09-18T06:18:15.827Z,9.80
2022-09-18T06:20:43.856Z,9.80
2022-09-18T06:23:10.916Z,9.80
2022-09-18T06:25:37.761Z,9.80
2022-09-18T06:28:06.605Z,9.80
2022-09-18T06:30:35.631Z,9.90
2022-09-18T06:33:07.090Z,9.90
2022-09-18T06:35:35.816Z,9.90
2022-09-18T06:38:03.958Z,10.00
2022-09-18T06:40:31.786Z,10.00
2022-09-18T06:43:00.183Z,10.00
2022-09-18T06:45:27.860Z,10.00
2022-09-18T06:47:55.404Z,10.00
2022-09-18T06:50:25.736Z,10.00
2022-09-18T06:52:52.491Z,10.00
2022-09-18T06:55:19.645Z,10.00
2022-09-18T06:57:56.979Z,10.00
2022-09-18T07:00:24.336Z,10.00
2022-09-18T07:02:56.204Z,10.00
2022-09-18T07:05:23.361Z,10.00
2022-09-18T07:07:50.168Z,10.00
2022-09-18T07:10:17.007Z,10.00
2022-09-18T07:12:48.372Z,10.00
2022-09-18T07:15:19.953Z,10.10
2022-09-18T07:17:46.868Z,10.10
2022-09-18T07:20:15.052Z,10.10
2022-09-18T07:22:47.063Z,10.10
2022-09-18T07:25:14.326Z,10.10
2022-09-18T07:27:41.098Z,10.10
2022-09-18T07:30:08.448Z,10.10
2022-09-18T07:32:35.980Z,10.10
2022-09-18T07:35:03.356Z,10.10
2022-09-18T07:37:30.254Z,10.20
2022-09-18T07:39:57.126Z,10.20
2022-09-18T07:42:23.990Z,10.20
2022-09-18T07:44:50.827Z,10.20
2022-09-18T07:47:17.679Z,10.20
2022-09-18T07:49:44.471Z,10.30
2022-09-18T07:52:11.692Z,10.40
2022-09-18T07:54:38.967Z,10.40
2022-09-18T07:57:05.806Z,10.50
2022-09-18T07:59:32.642Z,10.50
2022-09-18T08:01:59.531Z,10.60
2022-09-18T08:04:26.435Z,10.70
2022-09-18T08:06:55.083Z,10.60
2022-09-18T08:09:22.478Z,10.60
2022-09-18T08:11:52.682Z,10.60
2022-09-18T08:14:19.644Z,10.50
2022-09-18T08:16:46.431Z,10.50
2022-09-18T08:19:13.311Z,10.50
2022-09-18T08:21:40.162Z,10.40
2022-09-18T08:24:07.124Z,10.50
2022-09-18T08:26:38.492Z,10.50
2022-09-18T08:29:06.743Z,10.50
2022-09-18T08:31:33.619Z,10.60
2022-09-18T08:34:00.439Z,10.60
2022-09-18T08:36:27.365Z,10.60
2022-09-18T08:38:55.942Z,10.60
2022-09-18T08:41:41.062Z,10.70
2022-09-18T08:44:13.416Z,10.70
2022-09-18T08:47:06.755Z,10.70
2022-09-18T08:49:45.200Z,10.70
2022-09-18T08:52:21.166Z,10.80
2022-09-18T08:54:57.985Z,10.80
2022-09-18T08:57:34.899Z,10.90
2022-09-18T09:00:11.366Z,11.00
2022-09-18T09:02:45.682Z,11.00
2022-09-18T09:05:26.260Z,11.00
2022-09-18T09:08:01.840Z,11.00
2022-09-18T09:10:43.273Z,11.00
2022-09-18T09:13:35.066Z,11.00
2022-09-18T09:16:01.960Z,11.30
2022-09-18T09:18:52.961Z,11.70
2022-09-18T09:21:34.951Z,11.90
2022-09-18T09:24:04.493Z,12.10
2022-09-18T09:26:32.428Z,12.50
2022-09-18T09:29:06.900Z,12.80
2022-09-18T09:32:06.981Z,13.00
2022-09-18T09:34:46.027Z,13.40
2022-09-18T09:37:22.268Z,14.20
2022-09-18T09:39:57.737Z,15.00
2022-09-18T09:42:42.003Z,15.10
2022-09-18T09:45:29.248Z,14.90
2022-09-18T09:48:00.842Z,14.80
2022-09-18T09:50:33.102Z,14.70
2022-09-18T09:53:04.195Z,14.70
2022-09-18T09:55:37.715Z,14.40
2022-09-18T09:58:21.175Z,14.20
2022-09-18T10:00:56.731Z,14.30
2022-09-18T10:03:34.863Z,14.20
2022-09-18T10:06:52.327Z,14.30
2022-09-18T10:09:54.135Z,14.20
2022-09-18T10:12:49.092Z,13.90
2022-09-18T10:15:33.325Z,13.90
2022-09-18T10:18:04.631Z,13.80
2022-09-18T10:20:33.156Z,13.60
2022-09-18T10:23:14.987Z,13.50
2022-09-18T10:25:50.147Z,13.20
2022-09-18T10:28:17.383Z,12.90
2022-09-18T10:31:10.720Z,12.80
2022-09-18T10:33:41.526Z,12.80
2022-09-18T10:36:26.222Z,12.80
2022-09-18T10:38:53.202Z,13.00
2022-09-18T10:41:28.945Z,13.20
2022-09-18T10:44:04.865Z,13.40
2022-09-18T10:46:39.694Z,13.40
2022-09-18T10:49:20.737Z,13.50
2022-09-18T10:52:09.322Z,13.50
2022-09-18T10:54:36.707Z,13.40
2022-09-18T10:57:27.990Z,13.40
2022-09-18T10:59:56.084Z,13.30
2022-09-18T11:02:39.388Z,13.40
2022-09-18T11:05:20.798Z,13.50
2022-09-18T11:07:59.811Z,13.50
2022-09-18T11:10:29.640Z,13.60
2022-09-18T11:12:58.743Z,13.80
2022-09-18T11:15:35.276Z,13.90
2022-09-18T11:18:12.242Z,14.20
2022-09-18T11:20:43.826Z,14.10
2022-09-18T11:23:30.676Z,14.20
2022-09-18T11:26:12.562Z,13.90
2022-09-18T11:28:40.486Z,13.80
2022-09-18T11:31:17.951Z,13.70
2022-09-18T11:33:53.147Z,13.40
2022-09-18T11:36:28.858Z,13.00
2022-09-18T11:38:58.888Z,12.70
2022-09-18T11:41:35.856Z,12.70
2022-09-18T11:44:15.416Z,12.70
2022-09-18T11:46:48.682Z,12.80
2022-09-18T11:49:26.021Z,13.00
2022-09-18T11:51:58.251Z,13.10
2022-09-18T11:54:52.011Z,13.30
2022-09-18T11:57:36.641Z,13.30
2022-09-18T12:00:10.924Z,13.30
2022-09-18T12:03:26.068Z,13.40
2022-09-18T12:05:56.986Z,13.20
2022-09-18T12:08:46.961Z,13.10
2022-09-18T12:11:45.033Z,13.30
2022-09-18T12:14:27.582Z,13.40
2022-09-18T12:17:23.202Z,13.40
2022-09-18T12:20:04.825Z,13.30
2022-09-18T12:22:50.335Z,13.00
2022-09-18T12:25:20.682Z,13.00
2022-09-18T12:27:57.751Z,13.00
2022-09-18T12:30:34.260Z,13.00
2022-09-18T12:33:11.793Z,13.10
2022-09-18T12:35:56.367Z,13.00
2022-09-18T12:39:01.646Z,13.10
2022-09-18T12:41:34.557Z,13.30
2022-09-18T12:44:31.871Z,13.40
2022-09-18T12:47:17.266Z,13.60
2022-09-18T12:50:14.882Z,13.80
2022-09-18T12:53:08.221Z,14.00
2022-09-18T12:55:45.064Z,14.00
2022-09-18T12:58:34.024Z,13.70
2022-09-18T13:01:06.186Z,13.60
2022-09-18T13:03:36.244Z,13.40
2022-09-18T13:06:14.544Z,13.40
2022-09-18T13:08:56.190Z,13.40
2022-09-18T13:11:46.713Z,13.20
2022-09-18T13:14:22.784Z,13.10
2022-09-18T13:17:03.709Z,13.20
2022-09-18T13:19:35.328Z,13.20
2022-09-18T13:22:12.271Z,13.40
2022-09-18T13:24:41.503Z,13.50
2022-09-18T13:27:16.374Z,13.60
2022-09-18T13:29:55.641Z,13.80
2022-09-18T13:32:37.195Z,13.70
2022-09-18T13:35:13.873Z,13.70
2022-09-18T13:37:42.972Z,13.70
2022-09-18T13:40:56.334Z,13.70
2022-09-18T13:43:29.861Z,13.70
2022-09-18T13:46:01.597Z,13.60
2022-09-18T13:48:39.859Z,13.40
2022-09-18T13:51:31.428Z,13.30
2022-09-18T13:54:23.214Z,13.20
2022-09-18T13:57:10.822Z,13.20
2022-09-18T14:00:10.215Z,13.00
2022-09-18T14:02:41.642Z,12.90
2022-09-18T14:05:29.868Z,12.70
2022-09-18T14:07:57.804Z,12.70
2022-09-18T14:10:30.465Z,12.70
2022-09-18T14:13:22.748Z,12.60
2022-09-18T14:16:03.517Z,12.40
2022-09-18T14:18:32.071Z,12.30
2022-09-18T14:21:17.592Z,12.30
2022-09-18T14:23:48.445Z,12.20
2022-09-18T14:26:37.552Z,12.20
2022-09-18T14:29:15.466Z,12.30
2022-09-18T14:31:50.509Z,12.20
2022-09-18T14:34:37.891Z,12.30
2022-09-18T14:37:31.129Z,12.20
2022-09-18T14:39:58.915Z,12.20
2022-09-18T14:42:38.319Z,12.10
2022-09-18T14:45:11.384Z,12.00
2022-09-18T14:47:40.593Z,11.90
2022-09-18T14:50:26.474Z,11.80
2022-09-18T14:52:54.176Z,11.70
2022-09-18T14:55:43.206Z,11.60
2022-09-18T14:58:16.105Z,11.60
2022-09-18T15:00:45.389Z,11.50
2022-09-18T15:03:30.321Z,11.40
2022-09-18T15:06:25.606Z,11.40
2022-09-18T15:08:56.130Z,11.30
2022-09-18T15:11:34.717Z,11.30
2022-09-18T15:14:45.404Z,11.20
2022-09-18T15:17:23.101Z,11.20
2022-09-18T15:20:01.333Z,11.20
2022-09-18T15:22:29.936Z,11.20
2022-09-18T15:25:00.848Z,11.30
2022-09-18T15:27:29.130Z,11.20
2022-09-18T15:30:05.251Z,11.30
2022-09-18T15:32:39.631Z,11.20
2022-09-18T15:35:08.920Z,11.20
2022-09-18T15:37:38.351Z,11.10
2022-09-18T15:40:08.970Z,11.10
2022-09-18T15:42:39.304Z,11.10
2022-09-18T15:45:06.161Z,11.00
2022-09-18T15:47:36.606Z,11.00
2022-09-18T15:50:12.635Z,11.00
2022-09-18T15:52:55.017Z,11.00
2022-09-18T15:55:23.717Z,11.00
2022-09-18T15:58:08.436Z,10.90
2022-09-18T16:00:38.491Z,10.90
2022-09-18T16:03:19.499Z,10.80
2022-09-18T16:06:05.027Z,10.80
2022-09-18T16:08:37.228Z,10.80
2022-09-18T16:11:06.679Z,10.80
2022-09-18T16:13:40.899Z,10.70
2022-09-18T16:16:14.402Z,10.70
2022-09-18T16:18:52.732Z,10.70
2022-09-18T16:21:20.662Z,10.70
2022-09-18T16:23:53.232Z,10.70
2022-09-18T16:26:20.227Z,10.60
2022-09-18T16:29:04.156Z,10.60
2022-09-18T16:31:35.393Z,10.60
2022-09-18T16:34:18.331Z,10.60
2022-09-18T16:36:47.300Z,10.60
2022-09-18T16:39:16.380Z,10.60
2022-09-18T16:41:44.364Z,10.50
2022-09-18T16:44:12.869Z,10.60
2022-09-18T16:46:49.486Z,10.50
2022-09-18T16:49:20.235Z,10.50
2022-09-18T16:51:47.032Z,10.50
2022-09-18T16:54:14.141Z,10.50
2022-09-18T16:56:51.602Z,10.50
2022-09-18T16:59:20.920Z,10.50
2022-09-18T17:02:02.929Z,10.40
2022-09-18T17:04:31.399Z,10.40
2022-09-18T17:07:03.630Z,10.40
2022-09-18T17:09:32.743Z,10.40
2022-09-18T17:11:59.815Z,10.40
2022-09-18T17:14:26.726Z,10.40
2022-09-18T17:16:54.013Z,10.30
2022-09-18T17:19:22.275Z,10.40
2022-09-18T17:21:49.465Z,10.30
2022-09-18T17:24:17.569Z,10.30
2022-09-18T17:26:44.491Z,10.40
2022-09-18T17:29:11.490Z,10.30
2022-09-18T17:31:38.583Z,10.30
2022-09-18T17:34:05.863Z,10.30
2022-09-18T17:36:32.743Z,10.30
2022-09-18T17:39:02.463Z,10.20
2022-09-18T17:41:31.235Z,10.20
2022-09-18T17:43:58.169Z,10.20
2022-09-18T17:46:25.157Z,10.20
2022-09-18T17:48:57.039Z,10.20
2022-09-18T17:51:28.455Z,10.20
2022-09-18T17:54:04.207Z,10.10
2022-09-18T17:56:32.847Z,10.10
2022-09-18T17:59:02.576Z,10.10
2022-09-18T18:01:29.913Z,10.10
2022-09-18T18:03:57.379Z,10.10
2022-09-18T18:06:24.613Z,10.10
2022-09-18T18:08:51.811Z,10.00
2022-09-18T18:11:22.226Z,10.00
2022-09-18T18:13:50.437Z,10.00
2022-09-18T18:16:25.015Z,9.90
2022-09-18T18:18:55.314Z,9.90
2022-09-18T18:21:23.021Z,9.90
2022-09-18T18:23:58.202Z,9.90
2022-09-18T18:26:31.280Z,9.90
2022-09-18T18:28:58.328Z,9.80
2022-09-18T18:31:25.846Z,9.80
2022-09-18T18:33:55.009Z,9.80
2022-09-18T18:36:27.907Z,9.80
2022-09-18T18:38:57.339Z,9.80
2022-09-18T18:41:26.579Z,9.80
2022-09-18T18:43:57.600Z,9.70
2022-09-18T18:46:26.648Z,9.70
2022-09-18T18:49:01.944Z,9.70
2022-09-18T18:51:32.043Z,9.70
2022-09-18T18:54:03.641Z,9.60
2022-09-18T18:56:34.136Z,9.60
2022-09-18T18:59:03.220Z,9.60
2022-09-18T19:01:34.460Z,9.60
2022-09-18T19:04:06.649Z,9.50
2022-09-18T19:06:36.398Z,9.50
2022-09-18T19:09:15.974Z,9.60
2022-09-18T19:11:50.756Z,9.50
2022-09-18T19:14:23.538Z,9.40
2022-09-18T19:16:51.110Z,9.30
2022-09-18T19:19:23.830Z,9.20
2022-09-18T19:21:52.357Z,9.00
2022-09-18T19:24:20.147Z,8.90
2022-09-18T19:26:48.062Z,8.80
2022-09-18T19:29:17.531Z,8.70
2022-09-18T19:31:46.054Z,8.70
2022-09-18T19:34:18.639Z,8.50
2022-09-18T19:36:50.506Z,8.50
2022-09-18T19:39:19.975Z,8.50
2022-09-18T19:42:28.230Z,8.50
2022-09-18T19:45:00.563Z,8.50
2022-09-18T19:47:34.414Z,8.50
2022-09-18T19:50:03.788Z,8.50
2022-09-18T19:52:30.622Z,8.50
2022-09-18T19:54:58.698Z,8.60
2022-09-18T19:57:28.725Z,8.60
2022-09-18T19:59:57.189Z,8.60
2022-09-18T20:02:25.502Z,8.60
2022-09-18T20:04:52.409Z,8.60
2022-09-18T20:07:19.367Z,8.60
2022-09-18T20:09:46.151Z,8.60
2022-09-18T20:12:13.123Z,8.60
2022-09-18T20:14:39.975Z,8.50
2022-09-18T20:17:06.886Z,8.50
2022-09-18T20:19:34.499Z,8.50
2022-09-18T20:22:02.797Z,8.50
2022-09-18T20:24:30.954Z,8.50
2022-09-18T20:26:58.484Z,8.50
2022-09-18T20:29:27.300Z,8.50
2022-09-18T20:31:54.200Z,8.50
2022-09-18T20:34:22.425Z,8.40
2022-09-18T20:36:52.545Z,8.40
2022-09-18T20:39:19.757Z,8.40
2022-09-18T20:41:47.646Z,8.30
2022-09-18T20:44:14.528Z,8.30
2022-09-18T20:46:42.899Z,8.30
2022-09-18T20:49:10.888Z,8.30
2022-09-18T20:51:37.694Z,8.30
2022-09-18T20:54:08.293Z,8.30
2022-09-18T20:56:41.384Z,8.30
2022-09-18T20:59:10.344Z,8.30
2022-09-18T21:01:42.282Z,8.30
2022-09-18T21:04:16.990Z,8.30
2022-09-18T21:06:46.216Z,8.20
2022-09-18T21:09:13.050Z,8.20
2022-09-18T21:11:42.638Z,8.20
2022-09-18T21:14:12.470Z,8.20
2022-09-18T21:16:43.543Z,8.10
2022-09-18T21:19:17.167Z,8.10
2022-09-18T21:21:43.985Z,8.00
2022-09-18T21:24:10.999Z,8.00
2022-09-18T21:26:43.313Z,8.00
2022-09-18T21:29:20.824Z,8.00
2022-09-18T21:31:51.396Z,8.00
2022-09-18T21:34:26.978Z,8.00
2022-09-18T21:37:07.252Z,8.00
2022-09-18T21:39:35.423Z,8.00
2022-09-18T21:42:05.808Z,7.90
2022-09-18T21:44:33.425Z,7.90
2022-09-18T21:47:02.243Z,7.90
2022-09-18T21:49:29.808Z,7.90
2022-09-18T21:52:02.256Z,7.80
2022-09-18T21:54:30.334Z,7.80
2022-09-18T21:56:57.470Z,7.80
2022-09-18T21:59:27.418Z,7.80
2022-09-18T22:01:55.277Z,7.80
2022-09-18T22:04:27.387Z,7.80
2022-09-18T22:06:56.856Z,7.70
2022-09-18T22:09:26.852Z,7.70
2022-09-18T22:11:54.741Z,7.70
2022-09-18T22:14:32.067Z,7.70
2022-09-18T22:17:05.433Z,7.70
2022-09-18T22:19:40.637Z,7.70
2022-09-18T22:22:08.593Z,7.60
2022-09-18T22:24:50.992Z,7.50
2022-09-18T22:27:18.150Z,7.40
2022-09-18T22:29:45.105Z,7.30
2022-09-18T22:32:12.011Z,7.20
2022-09-18T22:34:39.079Z,7.20
2022-09-18T22:37:06.078Z,7.10
2022-09-18T22:39:32.892Z,7.00
2022-09-18T22:41:59.954Z,6.90
2022-09-18T22:44:26.853Z,6.80
2022-09-18T22:46:53.893Z,6.80
2022-09-18T22:49:22.765Z,6.70
2022-09-18T22:51:50.639Z,6.60
2022-09-18T22:54:23.737Z,6.60
2022-09-18T22:56:52.291Z,6.50
2022-09-18T22:59:21.634Z,6.50
2022-09-18T23:01:51.220Z,6.50
2022-09-18T23:04:23.568Z,6.40
2022-09-18T23:06:51.125Z,6.30
2022-09-18T23:09:19.243Z,6.40
2022-09-18T23:11:48.021Z,6.40
2022-09-18T23:14:20.774Z,6.30
2022-09-18T23:16:49.130Z,6.20
2022-09-18T23:19:28.132Z,6.20
2022-09-18T23:21:55.789Z,6.10
2022-09-18T23:24:23.651Z,6.10
2022-09-18T23:26:52.505Z,6.00
2022-09-18T23:29:21.749Z,6.00
2022-09-18T23:31:50.791Z,6.10
2022-09-18T23:34:20.024Z,6.20
2022-09-18T23:36:52.718Z,6.20
2022-09-18T23:39:25.247Z,6.30
2022-09-18T23:41:52.523Z,6.40
2022-09-18T23:44:21.913Z,6.40
2022-09-18T23:46:49.680Z,6.50
2022-09-18T23:49:19.872Z,6.50
2022-09-18T23:51:46.737Z,6.60
2022-09-18T23:54:25.506Z,6.70
2022-09-18T23:56:53.161Z,6.70
2022-09-18T23:59:23.034Z,6.80
